Time;durP1;ratioP1;P1;durP2;ratioP2;P2;SDS_P1;SDS_P2;PMS_P1;PMS_P2;Temp;Humidity;BMP_temperature;BMP_pressure;BME280_temperature;BME280_humidity;BME280_pressure;Samples;Min_cycle;Max_cycle;Signal;HPM_P1;HPM_P2
2023/02/22 00:00:41;;;;;;;32.72;20.00;;;7.70;99.90;;;;;;4985551;28;20053;-82
2023/02/22 00:03:15;;;;;;;29.77;19.10;;;7.70;99.90;;;;;;4996043;28;20225;-83
2023/02/22 00:05:52;;;;;;;31.08;18.05;;;7.70;99.90;;;;;;4996227;28;20109;-81
2023/02/22 00:08:19;;;;;;;32.60;19.73;;;7.60;99.90;;;;;;4984568;28;20041;-82
2023/02/22 00:10:45;;;;;;;29.98;17.73;;;7.70;99.90;;;;;;4977754;28;20038;-82
2023/02/22 00:13:13;;;;;;;31.92;18.75;;;7.60;99.90;;;;;;4993097;28;20037;-82
2023/02/22 00:15:43;;;;;;;31.38;19.30;;;7.70;99.90;;;;;;4994799;28;20498;-83
2023/02/22 00:18:13;;;;;;;31.55;19.63;;;7.60;99.90;;;;;;4983537;28;20041;-82
2023/02/22 00:20:39;;;;;;;29.63;18.40;;;7.60;99.90;;;;;;4996207;28;20110;-82
2023/02/22 00:23:07;;;;;;;30.73;17.10;;;7.60;99.90;;;;;;4983909;28;20132;-82
2023/02/22 00:25:34;;;;;;;32.28;18.65;;;7.60;99.90;;;;;;4995309;28;20042;-81
2023/02/22 00:28:00;;;;;;;33.20;20.05;;;7.60;99.90;;;;;;4983631;28;20492;-81
2023/02/22 00:30:28;;;;;;;33.60;20.83;;;7.50;99.90;;;;;;4984213;28;20030;-81
2023/02/22 00:32:55;;;;;;;32.67;19.13;;;7.60;99.90;;;;;;4984382;28;20066;-80
2023/02/22 00:35:27;;;;;;;31.20;19.58;;;7.50;99.90;;;;;;4996309;28;20034;-81
2023/02/22 00:37:55;;;;;;;31.33;19.25;;;7.50;99.90;;;;;;4995271;28;20061;-81
2023/02/22 00:40:25;;;;;;;31.40;18.60;;;7.60;99.90;;;;;;4983967;28;20145;-81
2023/02/22 00:42:51;;;;;;;35.03;21.10;;;7.60;99.90;;;;;;4994634;28;20042;-82
2023/02/22 00:45:19;;;;;;;37.22;22.30;;;7.60;99.90;;;;;;4984350;28;20826;-81
2023/02/22 00:47:44;;;;;;;37.30;21.70;;;7.60;99.90;;;;;;5010890;28;20061;-81
2023/02/22 00:50:11;;;;;;;34.15;20.17;;;7.50;99.90;;;;;;4973606;28;20629;-81
2023/02/22 00:52:37;;;;;;;33.70;19.98;;;7.50;99.90;;;;;;4975635;28;20042;-80
2023/02/22 00:55:06;;;;;;;36.08;20.40;;;7.50;99.90;;;;;;4973937;28;20085;-82
2023/02/22 00:57:33;;;;;;;36.45;20.83;;;7.60;99.90;;;;;;4981931;28;20038;-81
2023/02/22 01:00:00;;;;;;;36.17;21.77;;;7.50;99.90;;;;;;4981565;28;20034;-82
2023/02/22 01:02:25;;;;;;;38.97;22.95;;;7.60;99.90;;;;;;4976446;28;20046;-82
2023/02/22 01:04:51;;;;;;;39.20;23.00;;;7.50;99.90;;;;;;4981565;28;20046;-82
2023/02/22 01:07:16;;;;;;;38.35;21.58;;;7.50;99.90;;;;;;4981576;28;20100;-82
2023/02/22 01:09:43;;;;;;;40.88;24.40;;;7.50;99.90;;;;;;4997474;28;20077;-81
2023/02/22 01:12:08;;;;;;;41.92;23.15;;;7.50;99.90;;;;;;4980912;28;20129;-82
2023/02/22 01:14:34;;;;;;;47.95;26.88;;;7.50;99.90;;;;;;4991081;28;20117;-81
2023/02/22 01:17:00;;;;;;;47.63;27.13;;;7.40;99.90;;;;;;4974965;28;20189;-81
2023/02/22 01:19:25;;;;;;;45.10;24.98;;;7.40;99.90;;;;;;4980116;28;20043;-82
2023/02/22 01:21:51;;;;;;;39.78;23.20;;;7.40;99.90;;;;;;4973596;28;20034;-81
2023/02/22 01:24:17;;;;;;;42.58;24.25;;;7.40;99.90;;;;;;4975404;28;22438;-81
2023/02/22 01:26:47;;;;;;;46.38;25.40;;;7.40;99.90;;;;;;4976020;28;20043;-80
2023/02/22 01:29:15;;;;;;;42.22;24.92;;;7.40;99.90;;;;;;4989760;28;20035;-83
2023/02/22 01:31:51;;;;;;;37.65;21.92;;;7.40;99.90;;;;;;4975433;28;20038;-81
2023/02/22 01:34:17;;;;;;;35.72;20.30;;;7.40;99.90;;;;;;4980823;28;20117;-81
2023/02/22 01:36:43;;;;;;;36.50;21.73;;;7.40;99.90;;;;;;4975409;28;20069;-82
2023/02/22 01:39:11;;;;;;;36.38;20.13;;;7.40;99.90;;;;;;5006159;28;20448;-80
2023/02/22 01:41:37;;;;;;;36.30;21.15;;;7.40;99.90;;;;;;4975315;28;20042;-80
2023/02/22 01:44:29;;;;;;;33.75;18.92;;;7.40;99.90;;;;;;4980670;28;20541;-82
2023/02/22 01:46:56;;;;;;;38.67;22.42;;;7.40;99.90;;;;;;4975114;28;20402;-81
2023/02/22 01:49:25;;;;;;;36.65;21.63;;;7.40;99.90;;;;;;4983783;28;20073;-81
2023/02/22 01:51:54;;;;;;;39.08;22.15;;;7.40;99.90;;;;;;4983014;28;20038;-81
2023/02/22 01:54:34;;;;;;;45.47;25.17;;;7.30;99.90;;;;;;4996684;28;20109;-80
2023/02/22 01:57:06;;;;;;;44.47;24.70;;;7.30;99.90;;;;;;4978867;28;20034;-83
2023/02/22 01:59:35;;;;;;;42.28;23.98;;;7.20;99.90;;;;;;4997958;28;20038;-80
2023/02/22 02:02:03;;;;;;;43.20;24.23;;;7.20;99.90;;;;;;5002401;28;20058;-81
2023/02/22 02:04:30;;;;;;;41.58;24.05;;;7.10;99.90;;;;;;4987249;28;20069;-82
2023/02/22 02:06:59;;;;;;;38.95;21.60;;;7.10;99.90;;;;;;4998014;28;20064;-82
2023/02/22 02:09:38;;;;;;;37.60;21.00;;;7.10;99.90;;;;;;4998878;28;20624;-81
2023/02/22 02:12:07;;;;;;;36.80;20.00;;;7.10;99.90;;;;;;4998350;28;20041;-82
2023/02/22 02:14:33;;;;;;;37.60;19.58;;;7.10;99.90;;;;;;4997698;28;20048;-81
2023/02/22 02:17:02;;;;;;;31.70;17.25;;;7.10;99.90;;;;;;4986424;28;20849;-82
2023/02/22 02:19:55;;;;;;;40.45;20.58;;;7.10;99.90;;;;;;4986966;28;20043;-81
2023/02/22 02:22:27;;;;;;;37.05;20.95;;;7.10;99.90;;;;;;4998576;28;20045;-81
2023/02/22 02:25:12;;;;;;;34.63;18.60;;;7.10;99.90;;;;;;4996979;28;20514;-79
2023/02/22 02:28:16;;;;;;;39.38;21.50;;;7.00;99.90;;;;;;4980251;28;20097;-81
2023/02/22 02:31:19;;;;;;;36.38;20.02;;;7.00;99.90;;;;;;4998798;28;20062;-82
2023/02/22 02:33:57;;;;;;;38.80;19.40;;;7.00;99.90;;;;;;4988244;28;20077;-81
2023/02/22 02:36:32;;;;;;;38.35;19.48;;;7.00;99.90;;;;;;4997473;28;20057;-82
2023/02/22 02:39:19;;;;;;;36.03;18.73;;;7.00;99.90;;;;;;4995832;28;20069;-81
2023/02/22 02:41:49;;;;;;;38.05;20.17;;;7.00;99.90;;;;;;4986079;28;20069;-82
2023/02/22 02:44:43;;;;;;;34.75;19.50;;;7.00;99.90;;;;;;4997696;28;20046;-82
2023/02/22 02:47:33;;;;;;;42.15;21.27;;;7.00;99.90;;;;;;4986028;28;20731;-82
2023/02/22 02:50:03;;;;;;;39.00;19.35;;;7.00;99.90;;;;;;5011108;28;20488;-81
2023/02/22 02:52:32;;;;;;;35.50;18.10;;;7.00;99.90;;;;;;4998011;28;20030;-81
2023/02/22 02:54:59;;;;;;;34.17;17.85;;;7.00;99.90;;;;;;4997342;28;20042;-82
2023/02/22 02:57:25;;;;;;;33.63;18.00;;;7.00;99.90;;;;;;4997965;28;20038;-82
2023/02/22 02:59:51;;;;;;;35.38;16.80;;;7.00;99.90;;;;;;4997942;28;20038;-82
2023/02/22 03:02:33;;;;;;;32.70;17.13;;;7.10;99.90;;;;;;4986804;28;20045;-81
2023/02/22 03:05:30;;;;;;;29.30;15.98;;;7.10;99.90;;;;;;4995456;28;20030;-82
2023/02/22 03:08:33;;;;;;;35.45;18.45;;;7.10;99.90;;;;;;4986306;28;20140;-81
2023/02/22 03:11:21;;;;;;;34.78;19.33;;;7.00;99.90;;;;;;4965509;28;20038;-81
2023/02/22 03:14:09;;;;;;;42.10;21.33;;;7.00;99.90;;;;;;4997175;28;20073;-81
2023/02/22 03:17:05;;;;;;;39.78;21.13;;;7.00;99.90;;;;;;4996038;28;20050;-81
2023/02/22 03:19:37;;;;;;;40.85;20.58;;;7.00;99.90;;;;;;4986587;28;20041;-81
2023/02/22 03:22:12;;;;;;;34.30;18.00;;;6.90;99.90;;;;;;4985268;28;20038;-82
2023/02/22 03:24:41;;;;;;;40.35;20.55;;;7.00;99.90;;;;;;4997496;28;20038;-83
2023/02/22 03:27:26;;;;;;;41.03;20.83;;;7.00;99.90;;;;;;4984934;28;20546;-79
2023/02/22 03:29:59;;;;;;;38.25;19.30;;;7.00;99.90;;;;;;4996658;28;20226;-83
2023/02/22 03:32:28;;;;;;;37.38;19.10;;;7.00;99.90;;;;;;4997804;28;20038;-82
2023/02/22 03:35:02;;;;;;;38.50;19.80;;;6.90;99.90;;;;;;4995840;28;20031;-82
2023/02/22 03:37:32;;;;;;;39.65;18.77;;;6.90;99.90;;;;;;4996608;28;20054;-83
2023/02/22 03:40:05;;;;;;;37.10;19.27;;;6.90;99.90;;;;;;4984112;28;20031;-83
2023/02/22 03:42:34;;;;;;;37.33;18.60;;;6.90;99.90;;;;;;4995906;28;20493;-82
2023/02/22 03:45:03;;;;;;;42.08;20.98;;;6.90;99.90;;;;;;4995453;28;20023;-80
2023/02/22 03:47:36;;;;;;;36.05;19.77;;;6.90;99.90;;;;;;4996984;28;20038;-83
2023/02/22 03:50:18;;;;;;;38.03;19.30;;;6.90;99.90;;;;;;4985934;28;20055;-82
2023/02/22 03:52:46;;;;;;;40.10;19.92;;;6.90;99.90;;;;;;4983516;28;20388;-81
2023/02/22 03:55:14;;;;;;;36.55;19.17;;;6.80;99.90;;;;;;4983297;28;20610;-81
2023/02/22 03:57:42;;;;;;;36.97;19.27;;;6.80;99.90;;;;;;4966640;28;20129;-81
2023/02/22 04:00:11;;;;;;;41.00;20.35;;;6.80;99.90;;;;;;4965413;28;20121;-81
2023/02/22 04:02:36;;;;;;;34.90;18.33;;;6.80;99.90;;;;;;4982825;28;20044;-80
2023/02/22 04:05:02;;;;;;;37.97;18.08;;;6.70;99.90;;;;;;4982939;28;20034;-83
2023/02/22 04:07:28;;;;;;;37.10;18.50;;;6.70;99.90;;;;;;4966447;28;20488;-82
2023/02/22 04:09:53;;;;;;;34.95;18.70;;;6.70;99.90;;;;;;4966597;28;20472;-80
2023/02/22 04:12:19;;;;;;;38.40;19.40;;;6.70;99.90;;;;;;4965280;28;20505;-82
2023/02/22 04:14:44;;;;;;;43.95;20.98;;;6.70;99.90;;;;;;4983295;28;20034;-82
2023/02/22 04:17:10;;;;;;;48.15;23.25;;;6.70;99.90;;;;;;4964252;28;20050;-81
2023/02/22 04:19:35;;;;;;;46.55;23.33;;;6.70;99.90;;;;;;4983377;28;20039;-82
2023/02/22 04:22:01;;;;;;;48.08;23.92;;;6.60;99.90;;;;;;4982512;28;20058;-83
2023/02/22 04:24:26;;;;;;;43.95;21.77;;;6.50;99.90;;;;;;4982745;28;20096;-82
2023/02/22 04:26:53;;;;;;;45.75;22.45;;;6.50;99.90;;;;;;4982943;28;22293;-82
2023/02/22 04:29:19;;;;;;;41.70;20.60;;;6.50;99.90;;;;;;4983647;28;20034;-82
2023/02/22 04:31:45;;;;;;;41.22;21.10;;;6.60;99.90;;;;;;4982757;28;20041;-84
2023/02/22 04:34:11;;;;;;;51.00;26.60;;;6.50;99.90;;;;;;4996584;28;20100;-83
2023/02/22 04:36:37;;;;;;;54.03;26.23;;;6.50;99.90;;;;;;4983091;28;20426;-82
2023/02/22 04:39:04;;;;;;;51.28;25.40;;;6.50;99.90;;;;;;4982233;28;20062;-83
2023/02/22 04:41:30;;;;;;;51.15;25.90;;;6.40;99.90;;;;;;4982919;28;20546;-81
2023/02/22 04:43:56;;;;;;;49.85;24.60;;;6.40;99.90;;;;;;4965967;28;20504;-81
2023/02/22 04:46:22;;;;;;;49.38;23.23;;;6.40;99.90;;;;;;4983347;28;20042;-81
2023/02/22 04:48:48;;;;;;;44.38;23.35;;;6.30;99.90;;;;;;4986071;28;20128;-83
2023/02/22 04:51:13;;;;;;;39.60;20.90;;;6.40;99.90;;;;;;5011031;28;20112;-82
2023/02/22 04:53:39;;;;;;;45.17;23.90;;;6.30;99.90;;;;;;4996249;28;20053;-82
2023/02/22 04:56:05;;;;;;;52.17;26.45;;;6.30;99.90;;;;;;4984003;28;20388;-82
2023/02/22 04:58:30;;;;;;;56.55;27.58;;;6.30;99.90;;;;;;4985445;28;20049;-83
2023/02/22 05:00:56;;;;;;;57.58;26.80;;;6.30;99.90;;;;;;4996008;28;20890;-84
2023/02/22 05:03:22;;;;;;;57.33;27.08;;;6.20;99.90;;;;;;4997787;28;20133;-82
2023/02/22 05:05:47;;;;;;;58.78;28.00;;;6.20;99.90;;;;;;4996283;28;20084;-82
2023/02/22 05:08:13;;;;;;;55.53;27.00;;;6.20;99.90;;;;;;4996294;28;20045;-82
2023/02/22 05:10:38;;;;;;;60.75;28.20;;;6.20;99.90;;;;;;4995140;28;20134;-83
2023/02/22 05:13:05;;;;;;;59.83;29.40;;;6.10;99.90;;;;;;4995415;28;20066;-80
2023/02/22 05:15:31;;;;;;;56.63;26.05;;;6.10;99.90;;;;;;4997176;28;20026;-82
2023/02/22 05:17:56;;;;;;;54.10;25.95;;;6.10;99.90;;;;;;4995707;28;20105;-83
2023/02/22 05:20:33;;;;;;;62.08;29.05;;;6.10;99.90;;;;;;4984804;28;20401;-81
2023/02/22 05:23:01;;;;;;;63.55;32.08;;;6.10;99.90;;;;;;4983459;28;20089;-81
2023/02/22 05:25:27;;;;;;;61.47;29.55;;;6.00;99.90;;;;;;4983660;28;20476;-81
2023/02/22 05:27:59;;;;;;;65.18;31.40;;;6.00;99.90;;;;;;4983896;28;20493;-80
2023/02/22 05:30:28;;;;;;;60.97;29.13;;;5.90;99.90;;;;;;4988338;28;20025;-82
2023/02/22 05:32:55;;;;;;;61.42;30.65;;;6.00;99.90;;;;;;4999730;28;20080;-82
2023/02/22 05:35:21;;;;;;;59.33;27.70;;;5.90;99.90;;;;;;5000480;28;20037;-81
2023/02/22 05:37:49;;;;;;;56.00;26.23;;;6.00;99.90;;;;;;4999385;28;20052;-82
2023/02/22 05:40:20;;;;;;;58.35;27.98;;;6.00;99.90;;;;;;4986186;28;20061;-81
2023/02/22 05:42:46;;;;;;;55.58;25.42;;;6.00;99.90;;;;;;4985618;28;20521;-82
2023/02/22 05:45:13;;;;;;;54.40;26.63;;;6.00;99.90;;;;;;4996168;28;20030;-81
2023/02/22 05:47:39;;;;;;;55.75;27.40;;;6.00;99.90;;;;;;4996239;28;20057;-81
2023/02/22 05:50:05;;;;;;;58.75;26.77;;;6.10;99.90;;;;;;4996089;28;20586;-82
2023/02/22 05:52:31;;;;;;;56.65;25.77;;;6.00;99.90;;;;;;4985259;28;20038;-83
2023/02/22 05:54:56;;;;;;;71.25;31.83;;;6.10;99.90;;;;;;4984891;28;20045;-82
2023/02/22 05:57:22;;;;;;;68.95;31.33;;;6.10;99.90;;;;;;4998040;28;20053;-82
2023/02/22 05:59:47;;;;;;;69.03;31.48;;;6.00;99.90;;;;;;4985350;28;20045;-82
2023/02/22 06:02:13;;;;;;;71.35;32.50;;;6.00;99.90;;;;;;4985291;28;20081;-84
2023/02/22 06:04:39;;;;;;;84.57;33.22;;;6.00;99.90;;;;;;4984673;28;20052;-82
2023/02/22 06:07:05;;;;;;;64.90;31.33;;;5.90;99.90;;;;;;4984516;28;20026;-82
2023/02/22 06:09:31;;;;;;;66.00;30.58;;;5.90;99.90;;;;;;4996498;28;20038;-80
2023/02/22 06:11:56;;;;;;;61.63;28.38;;;6.00;99.90;;;;;;4996274;28;20046;-82
2023/02/22 06:14:23;;;;;;;60.50;28.17;;;5.90;99.90;;;;;;4995622;28;20030;-82
2023/02/22 06:16:56;;;;;;;79.10;32.25;;;5.90;99.90;;;;;;4984830;28;20045;-82
2023/02/22 06:19:22;;;;;;;71.82;31.38;;;5.90;99.90;;;;;;4984197;28;20045;-82
2023/02/22 06:21:51;;;;;;;76.38;32.08;;;5.90;99.90;;;;;;4996477;28;20038;-81
2023/02/22 06:24:17;;;;;;;74.55;30.85;;;5.90;99.90;;;;;;4997309;28;20052;-80
2023/02/22 06:26:43;;;;;;;70.22;31.60;;;5.90;99.90;;;;;;4984959;28;20038;-81
2023/02/22 06:29:08;;;;;;;78.93;31.05;;;5.90;99.90;;;;;;4984960;28;20023;-81
2023/02/22 06:31:35;;;;;;;83.18;32.35;;;5.90;99.90;;;;;;4996351;28;20553;-79
2023/02/22 06:34:01;;;;;;;73.47;31.77;;;5.90;99.90;;;;;;4985343;28;20037;-79
2023/02/22 06:36:30;;;;;;;70.53;29.15;;;5.90;99.90;;;;;;4986137;28;20046;-82
2023/02/22 06:38:56;;;;;;;64.85;30.25;;;5.90;99.90;;;;;;4996081;28;20034;-79
2023/02/22 06:41:22;;;;;;;60.55;27.50;;;5.90;99.90;;;;;;4997240;28;20367;-80
2023/02/22 06:43:47;;;;;;;67.43;28.75;;;6.00;99.90;;;;;;4984556;28;20224;-80
2023/02/22 06:46:13;;;;;;;54.88;25.08;;;6.00;99.90;;;;;;4984661;28;20046;-81
2023/02/22 06:48:39;;;;;;;70.53;27.27;;;5.90;99.90;;;;;;4982346;28;20839;-80
2023/02/22 06:51:08;;;;;;;61.42;27.77;;;6.00;99.90;;;;;;4982646;28;20039;-79
2023/02/22 06:53:34;;;;;;;57.28;26.92;;;6.00;99.90;;;;;;4976752;28;20059;-80
2023/02/22 06:56:01;;;;;;;61.83;27.42;;;6.00;99.90;;;;;;4977583;28;20038;-81
2023/02/22 06:58:27;;;;;;;63.50;29.02;;;5.90;99.90;;;;;;4982882;28;20488;-82
2023/02/22 07:00:52;;;;;;;58.42;24.98;;;5.90;99.90;;;;;;4982169;28;20105;-80
2023/02/22 07:03:18;;;;;;;55.92;25.55;;;5.90;99.90;;;;;;4982446;28;20529;-81
2023/02/22 07:05:44;;;;;;;65.53;28.17;;;6.00;99.90;;;;;;4976655;28;20389;-82
2023/02/22 07:08:10;;;;;;;67.70;29.13;;;6.00;99.90;;;;;;4981908;28;20042;-79
2023/02/22 07:10:38;;;;;;;62.30;29.42;;;6.00;99.90;;;;;;4983295;28;20062;-81
2023/02/22 07:13:06;;;;;;;60.55;28.05;;;5.90;99.90;;;;;;4981175;28;20090;-79
2023/02/22 07:15:33;;;;;;;60.10;26.45;;;6.00;99.90;;;;;;4977123;28;20560;-80
2023/02/22 07:18:00;;;;;;;52.58;23.17;;;5.90;99.90;;;;;;5008524;28;20051;-81
2023/02/22 07:20:27;;;;;;;63.38;24.00;;;6.00;99.90;;;;;;4976634;28;20485;-80
2023/02/22 07:22:53;;;;;;;56.83;25.35;;;6.00;99.90;;;;;;4982314;28;20073;-81
2023/02/22 07:25:21;;;;;;;51.95;23.52;;;6.00;99.90;;;;;;4982325;28;20062;-82
2023/02/22 07:27:47;;;;;;;45.17;21.55;;;6.00;99.90;;;;;;4976562;28;20085;-82
2023/02/22 07:30:19;;;;;;;44.05;19.70;;;6.00;99.90;;;;;;4981771;28;20472;-80
2023/02/22 07:32:45;;;;;;;44.67;19.50;;;6.10;99.90;;;;;;4976949;28;20551;-82
2023/02/22 07:35:19;;;;;;;42.78;19.33;;;6.20;99.90;;;;;;4975685;28;20074;-80
2023/02/22 07:37:46;;;;;;;40.67;17.48;;;6.20;99.90;;;;;;4975752;28;20073;-80
2023/02/22 07:40:12;;;;;;;43.65;19.58;;;6.20;99.90;;;;;;4980964;28;20037;-80
2023/02/22 07:42:59;;;;;;;48.47;20.33;;;6.30;99.90;;;;;;4976446;28;20481;-83
2023/02/22 07:45:30;;;;;;;55.22;23.23;;;6.30;99.90;;;;;;4976335;28;20042;-80
2023/02/22 07:47:56;;;;;;;55.78;22.67;;;6.30;99.90;;;;;;4981542;28;20133;-81
2023/02/22 07:50:23;;;;;;;58.38;25.10;;;6.30;99.90;;;;;;4978012;28;20050;-80
2023/02/22 07:52:52;;;;;;;51.33;23.02;;;6.30;99.90;;;;;;4979203;28;20053;-80
2023/02/22 07:55:20;;;;;;;53.38;21.77;;;6.30;99.90;;;;;;4965429;28;20038;-82
2023/02/22 07:57:48;;;;;;;45.97;20.55;;;6.40;99.90;;;;;;4965134;28;20047;-80
2023/02/22 08:00:16;;;;;;;49.72;21.00;;;6.40;99.90;;;;;;4964136;28;20165;-81
2023/02/22 08:02:42;;;;;;;43.67;20.30;;;6.50;99.90;;;;;;4977214;28;20042;-82
2023/02/22 08:05:09;;;;;;;52.38;21.77;;;6.50;99.90;;;;;;4964514;28;20386;-82
2023/02/22 08:07:36;;;;;;;42.20;19.00;;;6.60;99.90;;;;;;4964715;28;20046;-82
2023/02/22 08:10:05;;;;;;;45.67;19.17;;;6.60;99.90;;;;;;4976133;28;20477;-82
2023/02/22 08:12:32;;;;;;;50.50;20.38;;;6.70;99.90;;;;;;4964995;28;20125;-82
2023/02/22 08:14:57;;;;;;;52.78;21.23;;;6.70;99.90;;;;;;4976657;28;20042;-83
2023/02/22 08:17:23;;;;;;;58.58;25.25;;;6.70;99.90;;;;;;4978051;28;20409;-83
2023/02/22 08:19:48;;;;;;;70.97;27.88;;;6.70;99.90;;;;;;4977433;28;20165;-80
2023/02/22 08:22:14;;;;;;;70.53;28.63;;;6.70;99.90;;;;;;4977062;28;20074;-83
2023/02/22 08:24:39;;;;;;;69.93;30.00;;;6.70;99.90;;;;;;4968314;28;20089;-84
2023/02/22 08:27:05;;;;;;;57.50;25.02;;;6.70;99.90;;;;;;4964676;28;20032;-81
2023/02/22 08:29:32;;;;;;;62.78;26.00;;;6.70;99.90;;;;;;4977142;28;20034;-79
2023/02/22 08:31:59;;;;;;;55.35;23.73;;;6.70;99.90;;;;;;4977429;28;20141;-83
2023/02/22 08:34:25;;;;;;;65.32;27.25;;;6.80;99.90;;;;;;4976047;28;20041;-82
2023/02/22 08:36:50;;;;;;;69.35;30.30;;;6.80;99.90;;;;;;4964845;28;20617;-81
2023/02/22 08:39:16;;;;;;;74.10;30.20;;;6.80;99.90;;;;;;4976137;28;20043;-81
2023/02/22 08:41:42;;;;;;;65.78;27.90;;;6.80;99.90;;;;;;4965688;28;20042;-84
2023/02/22 08:44:07;;;;;;;68.45;27.02;;;6.90;99.90;;;;;;4965634;28;20408;-84
2023/02/22 08:46:33;;;;;;;67.10;25.30;;;6.90;99.90;;;;;;4964603;28;20057;-83
2023/02/22 08:48:59;;;;;;;73.38;29.75;;;7.00;99.90;;;;;;4965941;28;20121;-81
2023/02/22 08:51:25;;;;;;;66.25;26.70;;;7.00;99.90;;;;;;4980323;28;20061;-82
2023/02/22 08:53:52;;;;;;;62.75;27.00;;;7.00;99.90;;;;;;4979571;28;20570;-84
2023/02/22 08:56:18;;;;;;;67.40;27.38;;;7.00;99.90;;;;;;4969896;28;20497;-81
2023/02/22 08:58:43;;;;;;;64.28;26.88;;;7.00;99.90;;;;;;4970370;28;20050;-81
2023/02/22 09:01:09;;;;;;;74.20;31.20;;;7.10;99.90;;;;;;4969512;28;20360;-80
2023/02/22 09:03:34;;;;;;;68.80;28.85;;;7.10;99.90;;;;;;4978699;28;20038;-83
2023/02/22 09:06:00;;;;;;;69.82;28.48;;;7.10;99.90;;;;;;4981713;28;20027;-84
2023/02/22 09:08:26;;;;;;;65.43;26.08;;;7.10;99.90;;;;;;4968837;28;20613;-83
2023/02/22 09:10:51;;;;;;;61.00;26.17;;;7.20;99.90;;;;;;4981574;28;20575;-83
2023/02/22 09:13:17;;;;;;;62.42;26.52;;;7.20;99.90;;;;;;4979934;28;20079;-83
2023/02/22 09:15:43;;;;;;;54.70;22.98;;;7.30;99.90;;;;;;4981307;28;20125;-81
2023/02/22 09:18:13;;;;;;;51.05;22.30;;;7.40;99.90;;;;;;4969126;28;20137;-81
2023/02/22 09:20:39;;;;;;;47.15;20.25;;;7.40;99.90;;;;;;4980390;28;20039;-82
2023/02/22 09:23:08;;;;;;;47.67;22.30;;;7.50;99.90;;;;;;4968500;28;20070;-82
2023/02/22 09:25:34;;;;;;;46.60;19.13;;;7.70;99.90;;;;;;4968701;28;20064;-82
2023/02/22 09:28:00;;;;;;;42.85;18.40;;;7.80;99.90;;;;;;4980087;28;20113;-84
2023/02/22 09:30:33;;;;;;;44.85;18.63;;;8.00;99.90;;;;;;4969154;28;20033;-85
2023/02/22 09:33:01;;;;;;;41.97;19.13;;;8.20;99.90;;;;;;4968212;28;20678;-82
2023/02/22 09:35:27;;;;;;;41.13;17.27;;;8.20;99.90;;;;;;4968470;28;20096;-82
2023/02/22 09:37:58;;;;;;;42.67;18.67;;;8.30;99.90;;;;;;4967539;28;20677;-81
2023/02/22 09:40:28;;;;;;;48.35;20.08;;;8.40;99.90;;;;;;4961058;28;20395;-84
2023/02/22 09:43:30;;;;;;;49.63;21.58;;;8.50;99.90;;;;;;4980003;28;20471;-80
2023/02/22 09:46:20;;;;;;;50.40;22.77;;;8.60;99.90;;;;;;4968652;28;20506;-82
2023/02/22 09:49:04;;;;;;;46.92;21.05;;;8.70;99.90;;;;;;4968333;28;20034;-81
2023/02/22 09:51:44;;;;;;;45.08;20.17;;;8.70;99.90;;;;;;4980121;28;20038;-81
2023/02/22 09:54:36;;;;;;;47.78;21.63;;;8.90;99.90;;;;;;4973552;28;20038;-82
2023/02/22 09:57:05;;;;;;;49.72;21.55;;;9.10;99.90;;;;;;4974857;28;20062;-83
2023/02/22 09:59:39;;;;;;;40.72;19.55;;;9.40;99.90;;;;;;4981055;28;20066;-82
2023/02/22 10:02:23;;;;;;;43.70;20.05;;;9.60;99.90;;;;;;4980983;28;20153;-83
2023/02/22 10:04:59;;;;;;;40.03;18.50;;;9.70;99.90;;;;;;4975026;28;20558;-82
2023/02/22 10:07:31;;;;;;;37.58;17.25;;;9.70;99.90;;;;;;4979274;28;20065;-84
2023/02/22 10:10:04;;;;;;;38.05;18.25;;;9.70;99.90;;;;;;4979212;28;20378;-82
2023/02/22 10:12:58;;;;;;;40.15;18.20;;;9.60;99.90;;;;;;4980068;28;20062;-82
2023/02/22 10:15:36;;;;;;;;;;;9.60;99.90;;;;;;4977021;28;20038;-82
2023/02/22 10:18:29;;;;;;;33.13;15.35;;;9.70;99.90;;;;;;4982553;28;19972;-82
2023/02/22 10:21:06;;;;;;;33.80;16.80;;;9.90;99.90;;;;;;4983253;28;20053;-83
2023/02/22 10:23:43;;;;;;;35.53;16.90;;;10.20;99.90;;;;;;4983241;28;20563;-81
2023/02/22 10:26:25;;;;;;;32.97;16.95;;;10.40;99.90;;;;;;4982944;28;20097;-83
2023/02/22 10:29:05;;;;;;;39.10;18.85;;;10.80;99.90;;;;;;4978093;28;20073;-84
2023/02/22 10:31:35;;;;;;;37.67;18.67;;;11.20;99.90;;;;;;4976770;28;20031;-83
2023/02/22 10:34:11;;;;;;;38.08;19.67;;;11.40;99.90;;;;;;4976363;28;20035;-81
2023/02/22 10:36:38;;;;;;;39.70;18.92;;;11.70;99.90;;;;;;4975676;28;20027;-84
2023/02/22 10:39:25;;;;;;;39.90;20.35;;;12.00;99.90;;;;;;4974778;28;20043;-81
2023/02/22 10:41:54;;;;;;;40.97;20.00;;;12.30;99.90;;;;;;4979950;28;20773;-80
2023/02/22 10:44:20;;;;;;;36.90;19.17;;;12.40;99.90;;;;;;4975141;28;20105;-82
2023/02/22 10:46:46;;;;;;;40.22;22.00;;;12.70;99.90;;;;;;4974291;28;20039;-82
2023/02/22 10:49:19;;;;;;;36.67;19.83;;;12.90;99.90;;;;;;4978947;28;20042;-82
2023/02/22 10:51:47;;;;;;;39.35;21.92;;;12.90;99.90;;;;;;4988958;28;20193;-81
2023/02/22 10:54:13;;;;;;;40.70;21.98;;;12.90;99.90;;;;;;4987696;28;20045;-80
2023/02/22 10:56:51;;;;;;;36.83;20.60;;;12.90;99.90;;;;;;4982095;28;20043;-83
2023/02/22 10:59:34;;;;;;;37.45;20.95;;;13.00;99.90;;;;;;4981444;28;20038;-85
2023/02/22 11:02:22;;;;;;;33.67;19.50;;;13.30;99.90;;;;;;4977181;28;20074;-83
2023/02/22 11:04:50;;;;;;;32.28;19.25;;;13.50;99.90;;;;;;4980130;28;20034;-82
2023/02/22 11:07:22;;;;;;;34.45;19.58;;;13.50;99.90;;;;;;4981534;28;20041;-81
2023/02/22 11:09:56;;;;;;;33.22;19.73;;;13.60;99.90;;;;;;4980157;28;20026;-81
2023/02/22 11:12:40;;;;;;;31.02;19.48;;;13.80;99.90;;;;;;4982864;28;20030;-79
2023/02/22 11:15:21;;;;;;;31.65;19.30;;;14.00;99.90;;;;;;4976148;28;20033;-82
2023/02/22 11:17:49;;;;;;;32.63;18.45;;;14.20;99.90;;;;;;4975339;28;20058;-81
2023/02/22 11:20:24;;;;;;;30.83;19.15;;;14.40;99.90;;;;;;4978378;28;20130;-82
2023/02/22 11:22:56;;;;;;;29.10;18.27;;;14.50;99.90;;;;;;4979735;28;20647;-84
2023/02/22 11:25:26;;;;;;;33.58;19.02;;;14.60;99.90;;;;;;4980810;28;20098;-82
2023/02/22 11:27:52;;;;;;;33.55;21.38;;;14.80;99.90;;;;;;4980321;28;20038;-80
2023/02/22 11:30:24;;;;;;;32.80;20.40;;;14.60;99.90;;;;;;4974267;28;20046;-81
2023/02/22 11:32:54;;;;;;;31.90;19.60;;;14.60;99.90;;;;;;4977014;28;20045;-82
2023/02/22 11:35:32;;;;;;;27.45;16.60;;;14.60;99.90;;;;;;4978215;28;20109;-81
2023/02/22 11:38:14;;;;;;;26.92;17.13;;;14.70;99.90;;;;;;4977695;28;20132;-81
2023/02/22 11:40:40;;;;;;;26.15;17.02;;;14.60;99.90;;;;;;4979986;28;20038;-82
2023/02/22 11:43:16;;;;;;;30.75;19.20;;;14.40;99.90;;;;;;4977115;28;20049;-82
2023/02/22 11:45:59;;;;;;;30.02;19.05;;;14.00;99.90;;;;;;4980317;28;20404;-81
2023/02/22 11:48:26;;;;;;;;;;;13.60;99.90;;;;;;4980963;28;20035;-82
2023/02/22 11:50:58;;;;;;;31.45;18.65;;;13.20;99.90;;;;;;5008671;28;19925;-82
2023/02/22 11:53:33;;;;;;;29.40;18.02;;;12.90;99.90;;;;;;4979897;28;21337;-82
2023/02/22 11:56:33;;;;;;;26.45;16.35;;;12.70;99.90;;;;;;4990787;28;20045;-80
2023/02/22 11:59:11;;;;;;;26.65;16.10;;;12.60;99.90;;;;;;4975527;28;20097;-80
2023/02/22 12:01:55;;;;;;;30.70;17.77;;;12.50;99.90;;;;;;4981092;28;21130;-81
2023/02/22 12:05:00;;;;;;;27.35;17.45;;;12.50;99.90;;;;;;4994862;28;20496;-81
2023/02/22 12:07:41;;;;;;;27.23;15.25;;;12.50;99.90;;;;;;4978696;28;20038;-81
2023/02/22 12:10:39;;;;;;;24.98;15.70;;;12.60;99.90;;;;;;4981822;28;20046;-81
2023/02/22 12:13:20;;;;;;;25.25;15.38;;;12.70;99.90;;;;;;4983141;28;20048;-80
2023/02/22 12:15:55;;;;;;;26.05;15.93;;;13.00;99.90;;;;;;4993884;28;20042;-82
2023/02/22 12:18:35;;;;;;;28.85;18.35;;;13.50;99.90;;;;;;4994701;28;20049;-82
2023/02/22 12:21:07;;;;;;;25.77;15.95;;;13.90;99.90;;;;;;4975327;28;20045;-81
2023/02/22 12:24:01;;;;;;;26.90;17.60;;;14.10;99.90;;;;;;4979274;28;20045;-81
2023/02/22 12:26:43;;;;;;;26.50;17.35;;;14.40;99.90;;;;;;4995271;28;20954;-81
2023/02/22 12:29:23;;;;;;;22.95;15.45;;;14.40;99.90;;;;;;4982473;28;20084;-83
2023/02/22 12:31:56;;;;;;;27.92;15.95;;;14.30;99.90;;;;;;4979948;28;20038;-80
2023/02/22 12:34:53;;;;;;;24.40;15.23;;;14.10;99.90;;;;;;4979440;28;20038;-81
2023/02/22 12:37:31;;;;;;;22.58;15.25;;;13.90;99.90;;;;;;4981168;28;20046;-81
2023/02/22 12:40:43;;;;;;;23.20;15.13;;;13.60;99.90;;;;;;4992872;28;20046;-80
2023/02/22 12:43:24;;;;;;;21.88;14.43;;;13.40;99.90;;;;;;4952388;28;20073;-82
2023/02/22 12:45:50;;;;;;;23.02;15.02;;;13.20;99.90;;;;;;4994403;28;20038;-81
2023/02/22 12:48:23;;;;;;;23.58;14.98;;;13.20;99.90;;;;;;4981100;28;20041;-83
2023/02/22 12:50:55;;;;;;;25.60;16.42;;;13.30;99.90;;;;;;4979811;28;20062;-82
2023/02/22 12:53:28;;;;;;;23.17;15.77;;;13.40;99.90;;;;;;4992210;28;20065;-82
2023/02/22 12:56:01;;;;;;;25.30;16.15;;;13.50;99.90;;;;;;4979501;28;20041;-81